This is the latest recevied weather packets stored in our database for station/object K7OLI-13. If no packets are shown the sender has not sent any weather packets the latest 10 day(s).
| Time | Temp. | Humidity | Pressure | Rain* | Wind** | Luminosity | Snow |
|---|---|---|---|---|---|---|---|
| 1777333831 | 15.56° C | 63% | 1015 hPa | 0 mm | - | - | - |
| 1777330244 | 15.56° C | 60% | 1015 hPa | 0 mm | - | - | - |
| 1777329630 | 15.56° C | 61% | 1016 hPa | 0 mm | - | - | - |
| 1777326619 | 15° C | 61% | 1016 hPa | 0 mm | - | - | - |
| 1777326040 | 15° C | 62% | 1016 hPa | 0 mm | - | - | - |
| 1777323020 | 14.44° C | 64% | 1016 hPa | 0 mm | - | - | - |
| 1777322432 | 13.89° C | 65% | 1016 hPa | 0 mm | - | - | - |
| 1777321229 | 14.44° C | 65% | 1016 hPa | 0 mm | - | - | - |
| 1777319441 | 13.89° C | 67% | 1016 hPa | 0 mm | - | - | - |
| 1777318232 | 13.89° C | 68% | 1016 hPa | 0 mm | - | - | - |
| 1777315825 | 12.78° C | 72% | 1016 hPa | 0 mm | - | - | - |
| 1777314032 | 11.67° C | 76% | 1016 hPa | 0 mm | - | - | - |
| 1777307424 | 9.44° C | 86% | 1016 hPa | 0 mm | - | - | - |
| 1777304445 | 8.89° C | 89% | 1015 hPa | 0 mm | - | - | - |
| 1777300837 | 7.78° C | 92% | 1014.2 hPa | 0 mm | - | - | - |
| 1777297824 | 5.56° C | 97% | 1014 hPa | 0 mm | - | - | - |
| 1777296026 | 5.56° C | 98% | 1013 hPa | 0 mm | - | - | - |
| 1777295434 | 5.56° C | 98% | 1013 hPa | 0 mm | - | - | - |
| 1777293620 | 5.56° C | 97% | 1013 hPa | 0 mm | - | - | - |
| 1777291866 | 5.56° C | 97% | 1013.1 hPa | 0 mm | - | - | - |
| 1777281632 | 7.22° C | 91% | 1012.1 hPa | 0 mm | - | - | - |
| 1777278652 | 8.89° C | 86% | 1012.1 hPa | 0 mm | - | - | - |
| 1777278044 | 8.89° C | 86% | 1012.1 hPa | 0 mm | - | - | - |
| 1777277432 | 8.33° C | 86% | 1012.1 hPa | 0 mm | - | - | - |
| 1777276820 | 8.89° C | 85% | 1012.1 hPa | 0 mm | - | - | - |
* Rain latest hour (hover to see other rain measurements)
** Current wind speed in m/s (hover to see current wind gust speed)